Terminal Aerodrome Forecast
Issued by NWS

Home | Current Version | Previous Version | Text Only | Print | Product List | Glossary On
Versions: 1 2 3 4 5 6 7 8 9 10 11 12 13 14 15 16 17 18 19 20
778
FTUS41 KPHI 301128
TAFMIV
TAF
KMIV 301128Z 3012/3112 VRB03KT 4SM BR SCT015 SCT080
      TEMPO 3012/3013 OVC015
     FM301300 18004KT P6SM BKN060
      TEMPO 3016/3020 SHRA OVC035
     FM302000 15004KT P6SM SHRA OVC035
     FM310100 12004KT 5SM SHRA BR OVC025
     FM310400 10004KT 3SM SHRA BR OVC010=

USA.gov is the U.S. government's official web portal to all federal, state and local government web resources and services.